Skip Navigation Links Skip Navigation Links

Current Weather

Igor I Sikorsky Memorial, Bridgeport, Conn.

For information only: do not use for flight planning or navigation.
Latest weather
Observation time Thursday, November 14, 2019 7:52 PM EST
Local time Thursday, November 14, 2019 8:08 PM EST
Flight conditions Visual Meteorological Conditions
Winds
Wind direction Southwest (230°)
Wind speed 15 mph
Visibility 10 mi.
Sky condition
Ceiling unlimited
Sky clear
Temperature 46°F
Dewpoint 28°F
Altimeter 30.29 in.Hg
Derived measurements
Relative humidity 49%
Wind chill 40°F
Density altitude -1195 ft.
Sea-level pressure 30.29 in.Hg
Remarks
Automated weather observing station with precipitation discriminator.
METAR KBDR 150052Z 23013KT 10SM CLR 08/M02 A3029 RMK AO2 SLP256 T00781022

Settings

Location code

InnerDrive.Weather 4.0.6770.0 Release CLR 4.0.30319.42000
Copyright ©2018 Inner Drive Technology. All rights reserved. Portions Copyright ©1986-2018 David Braverman.

Find weather

Site navigation


Skip Navigation Links

Place info

Page info

PayPal - The safer, easier way to pay online!

Return home.

Copyright ©2019 Inner Drive Technology. Purveyors of fine, hand-crafted computer software. Page printed 2019-11-15T01:08:58 UTC.